createdAt,value
2022-12-06T00:00:30.404Z,101076.38
2022-12-06T00:03:17.194Z,101072.03
2022-12-06T00:06:04.296Z,101072.03
2022-12-06T00:08:51.068Z,101064.22
2022-12-06T00:11:42.243Z,101063.34
2022-12-06T00:14:28.994Z,101059.88
2022-12-06T00:17:15.781Z,101041.63
2022-12-06T00:20:02.757Z,101049.44
2022-12-06T00:22:49.767Z,101033.81
2022-12-06T00:25:36.572Z,101040.75
2022-12-06T00:28:23.331Z,101032.91
2022-12-06T00:31:10.069Z,101019.00
2022-12-06T00:33:57.425Z,101017.28
2022-12-06T00:36:46.984Z,101007.72
2022-12-06T00:39:36.697Z,100908.66
2022-12-06T00:42:23.509Z,100952.09
2022-12-06T00:45:10.263Z,100993.81
2022-12-06T00:47:57.028Z,100999.91
2022-12-06T00:50:43.799Z,100993.81
2022-12-06T00:53:30.555Z,100991.19
2022-12-06T00:56:17.309Z,100999.03
2022-12-06T00:59:04.493Z,100993.81
2022-12-06T01:01:52.605Z,101002.50
2022-12-06T01:04:39.438Z,100963.38
2022-12-06T01:07:26.193Z,100994.69
2022-12-06T01:10:12.996Z,100982.50
2022-12-06T01:12:59.778Z,100979.03
2022-12-06T01:15:46.522Z,100974.69
2022-12-06T01:18:33.327Z,100966.84
2022-12-06T01:21:28.666Z,100847.84
2022-12-06T01:24:15.494Z,100947.75
2022-12-06T01:27:02.262Z,100865.25
2022-12-06T01:29:49.112Z,100913.84
2022-12-06T01:32:35.893Z,100828.75
2022-12-06T01:35:22.678Z,100943.41
2022-12-06T01:38:09.434Z,100941.66
2022-12-06T01:41:02.061Z,100947.75
2022-12-06T01:43:49.656Z,100942.53
2022-12-06T01:46:56.874Z,100932.09
2022-12-06T01:49:49.805Z,100939.91
2022-12-06T01:52:38.082Z,100923.44
2022-12-06T01:55:27.971Z,100925.16
2022-12-06T01:58:20.159Z,100851.34
2022-12-06T02:01:06.930Z,100917.31
2022-12-06T02:03:54.186Z,100914.72
2022-12-06T02:06:41.351Z,100922.53
2022-12-06T02:09:30.193Z,100906.03
2022-12-06T02:12:17.012Z,100840.06
2022-12-06T02:15:09.074Z,100898.22
2022-12-06T02:18:01.887Z,100893.84
2022-12-06T02:21:07.069Z,100891.25
2022-12-06T02:24:20.974Z,100896.47
2022-12-06T02:27:10.219Z,100888.66
2022-12-06T02:30:09.102Z,100882.56
2022-12-06T02:33:05.807Z,100873.88
2022-12-06T02:36:10.173Z,100804.44
2022-12-06T02:39:07.374Z,100869.53
2022-12-06T02:41:58.818Z,100849.56
2022-12-06T02:44:52.289Z,100776.69
2022-12-06T02:47:43.681Z,100852.16
2022-12-06T02:50:38.769Z,100845.22
2022-12-06T02:53:29.442Z,100826.13
2022-12-06T02:56:17.174Z,100775.81
2022-12-06T02:59:04.702Z,100845.25
2022-12-06T03:01:54.659Z,100841.75
2022-12-06T03:04:59.461Z,100838.28
2022-12-06T03:07:58.552Z,100767.13
2022-12-06T03:11:00.910Z,100831.34
2022-12-06T03:13:57.029Z,100840.03
2022-12-06T03:16:47.993Z,100837.44
2022-12-06T03:19:47.477Z,100828.75
2022-12-06T03:22:49.802Z,100826.16
2022-12-06T03:25:37.155Z,100820.94
2022-12-06T03:28:26.869Z,100809.66
2022-12-06T03:31:20.604Z,100814.84
2022-12-06T03:34:13.466Z,100764.50
2022-12-06T03:37:03.117Z,100787.94
2022-12-06T03:39:59.611Z,100821.78
2022-12-06T03:42:47.385Z,100808.78
2022-12-06T03:45:34.727Z,100791.44
2022-12-06T03:49:00.701Z,100803.56
2022-12-06T03:51:53.499Z,100804.44
2022-12-06T03:54:40.336Z,100803.56
2022-12-06T03:57:27.227Z,100717.69
2022-12-06T04:00:13.995Z,100778.41
2022-12-06T04:03:00.732Z,100792.31
2022-12-06T04:05:47.493Z,100793.16
2022-12-06T04:08:34.245Z,100732.44
2022-12-06T04:11:21.048Z,100728.09
2022-12-06T04:14:07.799Z,100698.59
2022-12-06T04:16:54.167Z,100787.09
2022-12-06T04:19:40.940Z,100781.03
2022-12-06T04:22:26.425Z,100774.94
2022-12-06T04:25:13.388Z,100779.28
2022-12-06T04:27:58.498Z,100784.50
2022-12-06T04:30:44.288Z,100775.81
2022-12-06T04:33:29.453Z,100781.91
2022-12-06T04:36:15.498Z,100768.88
2022-12-06T04:39:02.446Z,100670.00
2022-12-06T04:41:48.345Z,100676.06
2022-12-06T04:44:35.282Z,100768.00
2022-12-06T04:47:23.130Z,100773.22
2022-12-06T04:50:10.201Z,100761.91
2022-12-06T04:52:56.950Z,100755.00
2022-12-06T04:55:43.700Z,100765.41
2022-12-06T04:58:30.424Z,100693.41
2022-12-06T05:01:17.236Z,100756.72
2022-12-06T05:04:04.101Z,100735.91
2022-12-06T05:06:50.930Z,100748.91
2022-12-06T05:09:37.694Z,100767.13
2022-12-06T05:12:24.661Z,100755.84
2022-12-06T05:15:14.598Z,100742.84
2022-12-06T05:18:02.687Z,100759.31
2022-12-06T05:20:49.413Z,100758.44
2022-12-06T05:23:36.912Z,100643.13
2022-12-06T05:26:27.730Z,100709.03
2022-12-06T05:29:14.983Z,100737.63
2022-12-06T05:32:01.809Z,100744.59
2022-12-06T05:34:48.704Z,100730.69
2022-12-06T05:37:35.528Z,100742.84
2022-12-06T05:40:22.320Z,100691.69
2022-12-06T05:43:09.189Z,100757.59
2022-12-06T05:45:57.187Z,100748.91
2022-12-06T05:48:44.275Z,100746.31
2022-12-06T05:51:31.131Z,100752.41
2022-12-06T05:54:17.891Z,100753.25
2022-12-06T05:57:04.749Z,100757.59
2022-12-06T05:59:51.725Z,100757.63
2022-12-06T06:02:38.541Z,100759.34
2022-12-06T06:05:25.727Z,100756.72
2022-12-06T06:08:12.641Z,100714.22
2022-12-06T06:10:59.452Z,100697.72
2022-12-06T06:13:46.650Z,100761.94
2022-12-06T06:16:33.399Z,100755.00
2022-12-06T06:19:20.346Z,100755.84
2022-12-06T06:22:07.118Z,100761.94
2022-12-06T06:24:58.705Z,100760.22
2022-12-06T06:27:45.776Z,100753.25
2022-12-06T06:30:33.023Z,100759.34
2022-12-06T06:33:19.864Z,100707.28
2022-12-06T06:36:06.697Z,100699.50
2022-12-06T06:38:53.575Z,100752.41
2022-12-06T06:41:40.408Z,100749.81
2022-12-06T06:44:27.269Z,100755.84
2022-12-06T06:47:14.074Z,100739.38
2022-12-06T06:50:01.224Z,100754.13
2022-12-06T06:52:48.276Z,100754.13
2022-12-06T06:55:35.136Z,100719.41
2022-12-06T06:58:22.465Z,100603.22
2022-12-06T07:01:17.363Z,100752.38
2022-12-06T07:04:04.256Z,100745.41
2022-12-06T07:06:51.217Z,100747.19
2022-12-06T07:09:18.211Z,100750.63
2022-12-06T07:11:45.416Z,100728.97
2022-12-06T07:14:32.274Z,100731.53
2022-12-06T07:17:19.221Z,100707.25
2022-12-06T07:20:06.060Z,100723.72
2022-12-06T07:22:52.916Z,100725.41
2022-12-06T07:25:39.749Z,100736.69
2022-12-06T07:28:26.988Z,100735.81
2022-12-06T07:31:13.858Z,100730.56
2022-12-06T07:34:01.448Z,100738.38
2022-12-06T07:36:52.384Z,100735.72
2022-12-06T07:39:39.237Z,100743.50
2022-12-06T07:42:24.935Z,100737.34
2022-12-06T07:45:22.316Z,100738.22
2022-12-06T07:48:09.143Z,100694.84
2022-12-06T07:50:55.956Z,100722.50
2022-12-06T07:53:42.797Z,100721.63
2022-12-06T07:56:29.707Z,100718.13
2022-12-06T07:59:16.505Z,100724.13
2022-12-06T08:02:04.021Z,100729.31
2022-12-06T08:04:51.254Z,100723.19
2022-12-06T08:07:38.270Z,100730.13
2022-12-06T08:10:25.941Z,100717.06
2022-12-06T08:13:13.412Z,100723.09
2022-12-06T08:16:00.345Z,100724.81
2022-12-06T08:18:47.182Z,100717.84
2022-12-06T08:21:33.997Z,100691.88
2022-12-06T08:24:20.853Z,100736.91
2022-12-06T08:27:08.154Z,100735.16
2022-12-06T08:29:55.098Z,100729.94
2022-12-06T08:32:42.148Z,100720.34
2022-12-06T08:35:29.084Z,100727.25
2022-12-06T08:38:15.998Z,100719.41
2022-12-06T08:41:03.255Z,100722.88
2022-12-06T08:43:51.662Z,100686.41
2022-12-06T08:46:38.549Z,100697.63
2022-12-06T08:49:25.922Z,100711.47
2022-12-06T08:52:13.374Z,100712.28
2022-12-06T08:55:00.277Z,100713.94
2022-12-06T08:57:47.100Z,100720.88
2022-12-06T09:00:34.666Z,100720.84
2022-12-06T09:03:21.929Z,100713.00
2022-12-06T09:06:08.743Z,100712.97
2022-12-06T09:08:56.529Z,100711.16
2022-12-06T09:11:43.351Z,100700.69
2022-12-06T09:14:35.055Z,100700.69
2022-12-06T09:17:21.874Z,100690.22
2022-12-06T09:20:08.919Z,100693.66
2022-12-06T09:22:55.957Z,100684.91
2022-12-06T09:25:42.795Z,100703.19
2022-12-06T09:28:30.969Z,100687.47
2022-12-06T09:31:18.178Z,100681.38
2022-12-06T09:34:05.539Z,100682.22
2022-12-06T09:36:52.455Z,100692.63
2022-12-06T09:39:45.591Z,100687.38
2022-12-06T09:42:44.551Z,100675.97
2022-12-06T09:45:55.309Z,100671.63
2022-12-06T09:49:04.194Z,100666.31
2022-12-06T09:52:13.923Z,100672.34
2022-12-06T09:55:23.449Z,100680.16
2022-12-06T09:58:52.172Z,100687.09
2022-12-06T10:01:53.956Z,100686.19
2022-12-06T10:04:46.465Z,100683.53
2022-12-06T10:07:44.323Z,100684.41
2022-12-06T10:10:34.012Z,100689.59
2022-12-06T10:13:46.923Z,100685.25
2022-12-06T10:17:01.792Z,100693.03
2022-12-06T10:20:08.740Z,100629.78
2022-12-06T10:22:55.528Z,100692.94
2022-12-06T10:25:46.844Z,100697.28
2022-12-06T10:28:40.280Z,100692.00
2022-12-06T10:31:43.139Z,100692.84
2022-12-06T10:34:45.813Z,100703.31
2022-12-06T10:38:08.249Z,100622.75
2022-12-06T10:41:11.465Z,100668.59
2022-12-06T10:44:03.472Z,100695.38
2022-12-06T10:47:00.853Z,100697.09
2022-12-06T10:49:47.698Z,100704.91
2022-12-06T10:53:01.689Z,100631.34
2022-12-06T10:55:59.652Z,100631.25
2022-12-06T10:59:06.709Z,100691.75
2022-12-06T11:01:59.484Z,100679.50
2022-12-06T11:04:52.210Z,100680.38
2022-12-06T11:07:45.614Z,100632.84
2022-12-06T11:10:43.201Z,100686.41
2022-12-06T11:13:38.138Z,100682.00
2022-12-06T11:16:38.479Z,100690.72
2022-12-06T11:19:56.421Z,100693.28
2022-12-06T11:22:46.044Z,100688.88
2022-12-06T11:25:41.640Z,100683.63
2022-12-06T11:28:31.441Z,100682.75
2022-12-06T11:31:18.567Z,100677.53
2022-12-06T11:34:05.740Z,100673.09
2022-12-06T11:36:59.610Z,100660.84
2022-12-06T11:39:48.729Z,100638.38
2022-12-06T11:42:40.871Z,100667.81
2022-12-06T11:45:38.694Z,100678.25
2022-12-06T11:48:36.793Z,100637.56
2022-12-06T11:51:23.834Z,100661.78
2022-12-06T11:54:20.869Z,100678.19
2022-12-06T11:57:08.058Z,100681.63
2022-12-06T11:59:54.912Z,100671.25
2022-12-06T12:02:51.821Z,100678.16
2022-12-06T12:05:42.293Z,100674.59
2022-12-06T12:08:39.936Z,100582.13
2022-12-06T12:11:26.852Z,100680.72
2022-12-06T12:14:20.416Z,100696.47
2022-12-06T12:17:10.334Z,100684.22
2022-12-06T12:20:06.296Z,100692.91
2022-12-06T12:23:00.456Z,100703.38
2022-12-06T12:25:55.297Z,100707.72
2022-12-06T12:28:46.299Z,100674.81
2022-12-06T12:31:44.162Z,100701.59
2022-12-06T12:34:42.913Z,100711.19
2022-12-06T12:37:40.859Z,100652.28
2022-12-06T12:40:43.391Z,100661.94
2022-12-06T12:43:32.920Z,100702.41
2022-12-06T12:46:25.502Z,100705.91
2022-12-06T12:49:12.428Z,100690.31
2022-12-06T12:51:59.720Z,100686.81
2022-12-06T12:54:53.452Z,100634.13
2022-12-06T12:57:40.269Z,100714.69
2022-12-06T14:32:23.682Z,100704.13
2022-12-06T14:35:10.467Z,100689.38
2022-12-06T14:37:57.875Z,100707.50
2022-12-06T14:40:58.668Z,100697.91
2022-12-06T14:43:48.554Z,100683.94
2022-12-06T14:46:37.455Z,100695.31
2022-12-06T14:49:23.048Z,100695.31
2022-12-06T14:52:10.876Z,100707.50
2022-12-06T14:55:04.716Z,100701.41
2022-12-06T14:57:52.736Z,100691.00
2022-12-06T15:00:42.347Z,100700.56
2022-12-06T15:03:29.405Z,100711.91
2022-12-06T15:06:37.005Z,100715.38
2022-12-06T15:09:32.935Z,100704.16
2022-12-06T15:12:40.872Z,100728.50
2022-12-06T15:15:58.966Z,100724.16
2022-12-06T15:18:51.968Z,100711.91
2022-12-06T15:21:38.804Z,100713.66
2022-12-06T15:24:36.347Z,100724.13
2022-12-06T15:27:23.223Z,100711.13
2022-12-06T15:30:10.440Z,100719.78
2022-12-06T15:32:57.385Z,100700.69
2022-12-06T15:35:44.259Z,100701.53
2022-12-06T15:38:31.587Z,100691.06
2022-12-06T15:41:18.539Z,100688.44
2022-12-06T15:44:05.562Z,100683.19
2022-12-06T15:46:55.268Z,100683.22
2022-12-06T15:49:48.421Z,100668.44
2022-12-06T15:52:38.277Z,100582.00
2022-12-06T15:55:25.600Z,100660.75
2022-12-06T15:58:12.425Z,100668.59
2022-12-06T16:00:59.264Z,100659.22
2022-12-06T16:03:46.107Z,100690.44
2022-12-06T16:06:34.839Z,100671.47
2022-12-06T16:09:21.622Z,100702.75
2022-12-06T16:12:08.589Z,100633.53
2022-12-06T16:14:55.344Z,100704.53
2022-12-06T16:17:22.144Z,100700.19
2022-12-06T16:20:07.531Z,100694.97
2022-12-06T16:22:52.659Z,100688.91
2022-12-06T16:25:39.531Z,100686.34
2022-12-06T16:28:26.315Z,100688.13
2022-12-06T16:31:13.499Z,100609.38
2022-12-06T16:34:00.364Z,100689.09
2022-12-06T16:36:49.301Z,100694.34
2022-12-06T16:39:36.058Z,100691.81
2022-12-06T16:42:26.006Z,100706.63
2022-12-06T16:45:12.767Z,100711.03
2022-12-06T16:47:59.755Z,100664.28
2022-12-06T16:50:46.999Z,100706.75
2022-12-06T16:53:37.671Z,100701.53
2022-12-06T16:56:24.789Z,100665.34
2022-12-06T16:59:11.550Z,100714.69
2022-12-06T17:02:13.416Z,100709.47
2022-12-06T17:05:00.549Z,100661.91
2022-12-06T17:07:48.231Z,100661.00
2022-12-06T17:10:35.227Z,100706.91
2022-12-06T17:13:22.040Z,100705.22
2022-12-06T17:16:08.825Z,100711.31
2022-12-06T17:18:55.615Z,100726.16
2022-12-06T17:21:42.481Z,100719.22
2022-12-06T17:24:29.710Z,100710.56
2022-12-06T17:27:16.483Z,100623.16
2022-12-06T17:30:03.847Z,100601.53
2022-12-06T17:32:50.634Z,100695.88
2022-12-06T17:35:37.500Z,100719.31
2022-12-06T17:38:24.278Z,100732.41
2022-12-06T17:41:11.026Z,100735.03
2022-12-06T17:43:57.774Z,100740.25
2022-12-06T17:46:44.510Z,100720.31
2022-12-06T17:49:37.299Z,100718.50
2022-12-06T17:52:25.321Z,100728.94
2022-12-06T17:55:12.103Z,100723.75
2022-12-06T17:57:58.882Z,100727.25
2022-12-06T18:00:45.802Z,100724.66
2022-12-06T18:03:35.122Z,100722.09
2022-12-06T18:06:21.886Z,100717.78
2022-12-06T18:09:09.185Z,100725.63
2022-12-06T18:11:56.718Z,100731.72
2022-12-06T18:14:43.636Z,100742.16
2022-12-06T18:17:31.050Z,100732.63
2022-12-06T18:20:17.826Z,100723.91
2022-12-06T18:23:04.561Z,100723.94
2022-12-06T18:25:51.419Z,100730.06
2022-12-06T18:28:38.168Z,100726.63
2022-12-06T18:31:25.232Z,100704.09
2022-12-06T18:34:12.770Z,100713.63
2022-12-06T18:36:59.726Z,100711.06
2022-12-06T18:39:46.564Z,100712.00
2022-12-06T18:42:33.359Z,100712.94
2022-12-06T18:45:20.113Z,100697.34
2022-12-06T18:48:06.858Z,100718.13
2022-12-06T18:50:53.653Z,100718.13
2022-12-06T18:53:40.679Z,100732.06
2022-12-06T18:56:29.769Z,100732.91
2022-12-06T18:59:27.304Z,100735.53
2022-12-06T19:01:54.600Z,100716.44
2022-12-06T19:04:41.425Z,100718.19
2022-12-06T19:07:28.321Z,100729.47
2022-12-06T19:10:15.089Z,100709.53
2022-12-06T19:13:05.860Z,100691.38
2022-12-06T19:15:52.896Z,100706.94
2022-12-06T19:18:39.681Z,100726.88
2022-12-06T19:21:26.514Z,100727.78
2022-12-06T19:24:14.983Z,100732.97
2022-12-06T19:27:01.814Z,100732.97
2022-12-06T19:29:49.578Z,100733.00
2022-12-06T19:32:36.338Z,100726.91
2022-12-06T19:35:23.225Z,100725.19
2022-12-06T19:38:10.054Z,100726.06
2022-12-06T19:41:01.068Z,100729.53
2022-12-06T19:43:46.198Z,100721.72
2022-12-06T19:46:36.056Z,100716.50
2022-12-06T19:49:25.531Z,100716.53
2022-12-06T19:52:12.570Z,100728.75
2022-12-06T19:54:59.446Z,100719.19
2022-12-06T19:57:46.237Z,100722.66
2022-12-06T20:00:33.718Z,100719.19
2022-12-06T20:03:20.486Z,100719.19
2022-12-06T20:06:07.245Z,100723.53
2022-12-06T20:08:55.020Z,100719.22
2022-12-06T20:11:42.594Z,100732.25
2022-12-06T20:14:32.108Z,100729.66
2022-12-06T20:17:18.883Z,100719.22
2022-12-06T20:20:06.343Z,100701.91
2022-12-06T20:22:53.163Z,100719.25
2022-12-06T20:25:39.922Z,100726.19
2022-12-06T20:28:26.689Z,100707.13
2022-12-06T20:31:13.615Z,100684.56
2022-12-06T20:34:00.706Z,100689.75
2022-12-06T20:36:48.780Z,100708.84
2022-12-06T20:39:44.803Z,100709.75
2022-12-06T20:42:31.578Z,100709.75
2022-12-06T20:45:18.405Z,100564.19
2022-12-06T20:48:11.481Z,100706.28
2022-12-06T20:51:01.069Z,100675.91
2022-12-06T20:53:47.939Z,100680.28
2022-12-06T20:56:37.875Z,100702.81
2022-12-06T20:59:26.454Z,100703.72
2022-12-06T21:02:13.245Z,100716.75
2022-12-06T21:05:00.518Z,100720.19
2022-12-06T21:07:47.324Z,100715.88
2022-12-06T21:10:34.265Z,100716.78
2022-12-06T21:13:21.036Z,100683.81
2022-12-06T21:16:07.914Z,100728.03
2022-12-06T21:18:55.912Z,100719.38
2022-12-06T21:21:46.263Z,100717.63
2022-12-06T21:24:37.670Z,100725.44
2022-12-06T21:27:24.486Z,100722.00
2022-12-06T21:30:11.277Z,100715.91
2022-12-06T21:32:58.042Z,100712.41
2022-12-06T21:35:44.894Z,100714.19
2022-12-06T21:38:32.298Z,100700.31
2022-12-06T21:41:32.344Z,100700.31
2022-12-06T21:44:22.473Z,100701.16
2022-12-06T21:47:13.329Z,100705.50
2022-12-06T21:50:00.346Z,100699.44
2022-12-06T21:52:47.401Z,100707.25
2022-12-06T21:55:34.201Z,100676.94
2022-12-06T21:58:20.986Z,100706.38
2022-12-06T22:01:07.863Z,100696.84
2022-12-06T22:03:55.630Z,100669.09
2022-12-06T22:06:42.969Z,100684.72
2022-12-06T22:09:30.027Z,100691.66
2022-12-06T22:12:16.953Z,100667.38
2022-12-06T22:15:03.772Z,100695.16
2022-12-06T22:17:50.581Z,100697.72
2022-12-06T22:20:37.437Z,100701.19
2022-12-06T22:23:24.219Z,100653.50
2022-12-06T22:26:11.005Z,100689.91
2022-12-06T22:28:57.767Z,100695.13
2022-12-06T22:31:47.611Z,100712.50
2022-12-06T22:34:34.399Z,100692.53
2022-12-06T22:37:26.803Z,100689.09
2022-12-06T22:40:15.208Z,100695.13
2022-12-06T22:43:02.100Z,100694.28
2022-12-06T22:45:48.851Z,100697.72
2022-12-06T22:48:35.679Z,100699.50
2022-12-06T22:51:57.599Z,100700.34
2022-12-06T22:54:44.334Z,100696.84
2022-12-06T22:57:31.053Z,100698.59
2022-12-06T23:00:17.932Z,100689.94
2022-12-06T23:03:04.701Z,100700.34
2022-12-06T23:05:51.458Z,100700.31
2022-12-06T23:08:38.240Z,100706.41
2022-12-06T23:11:29.138Z,100706.41
2022-12-06T23:14:16.971Z,100702.94
2022-12-06T23:17:03.776Z,100709.84
2022-12-06T23:19:50.529Z,100611.00
2022-12-06T23:22:37.312Z,100717.66
2022-12-06T23:25:24.400Z,100715.03
2022-12-06T23:28:11.144Z,100710.72
2022-12-06T23:30:57.906Z,100707.25
2022-12-06T23:33:44.666Z,100683.81
2022-12-06T23:36:52.724Z,100698.53
2022-12-06T23:39:39.869Z,100711.53
2022-12-06T23:42:26.596Z,100705.50
2022-12-06T23:45:13.337Z,100708.09
2022-12-06T23:48:00.071Z,100649.97
2022-12-06T23:50:46.810Z,100689.00
2022-12-06T23:53:33.565Z,100700.28
2022-12-06T23:56:22.128Z,100689.00
2022-12-06T23:59:10.328Z,100663.81
